Temp: 14.8°C   Baro: 1019.4mb
  Wind: 4.9mph   Dir: NW (320°)
  Rain: 0.2mm (0.0mm/hr)
  Solar: 345W/m2  Hum: 70%
 
Bath Spa Weather Station Historical Data
Daily Summary for October 30, 2019 Units:  Metric    English   Both
Daily Weekly Monthly Yearly Custom
  High: Low: Average:
Temperature: 11.4 °C 6.9 °C 9.1 °C
Dew Point: 6.4 °C 4.7 °C 5.7 °C
Humidity: 91% 67% 80%
Wind Speed: 15.1km/h 3.2km/h 7.4km/h
Wind Gust: 30.6km/h - -
Wind- - ESE
Pressure: 1023.9 hPa 1019.2 hPa -
Precipitation: 2.54 mm    
Historical Graphs
 
 
Tabular Data for October 30, 2019
Time Temperature Dew Point Pressure Wind Wind Speed Wind Gust Humidity Rainfall Rate (Hourly) solar
00:04 8.5 °C 5.6 °C 1023.9 hPa East 7.7 km/h 20.9 km/h 82% 0 mm 0 W/m2
00:09 8.6 °C 5.7 °C 1023.9 hPa East 8.9 km/h 29 km/h 82% 0 mm 0 W/m2
00:14 8.6 °C 5.7 °C 1023.9 hPa East 7.2 km/h 16.1 km/h 82% 0 mm 0 W/m2
00:19 8.5 °C 5.6 °C 1023.9 hPa East 7.7 km/h 17.7 km/h 82% 0 mm 0 W/m2
00:24 8.6 °C 5.7 °C 1023.9 hPa ENE 5 km/h 17.7 km/h 82% 0 mm 0 W/m2
00:29 8.6 °C 5.7 °C 1023.9 hPa ENE 6.8 km/h 20.9 km/h 82% 0 mm 0 W/m2
00:34 8.6 °C 5.7 °C 1023.9 hPa East 7.4 km/h 17.7 km/h 82% 0 mm 0 W/m2
00:39 8.6 °C 5.7 °C 1023.9 hPa East 6.8 km/h 20.9 km/h 82% 0 mm 0 W/m2
00:44 8.6 °C 5.7 °C 1023.9 hPa East 3.5 km/h 17.7 km/h 82% 0 mm 0 W/m2
00:49 8.6 °C 5.7 °C 1023.9 hPa East 5.8 km/h 16.1 km/h 82% 0 mm 0 W/m2
00:54 8.6 °C 5.7 °C 1023.9 hPa East 3.9 km/h 16.1 km/h 82% 0 mm 0 W/m2
00:59 8.5 °C 5.6 °C 1023.9 hPa East 6.8 km/h 16.1 km/h 82% 0 mm 0 W/m2
01:04 8.4 °C 5.6 °C 1023.9 hPa East 7.2 km/h 16.1 km/h 82% 0 mm 0 W/m2
01:09 8.4 °C 5.5 °C 1023.9 hPa East 7.6 km/h 16.1 km/h 82% 0 mm 0 W/m2
01:14 8.4 °C 5.5 °C 1023.9 hPa East 7.6 km/h 17.7 km/h 82% 0 mm 0 W/m2
01:19 8.4 °C 5.5 °C 1023.6 hPa East 8.7 km/h 17.7 km/h 82% 0 mm 0 W/m2
01:24 8.4 °C 5.5 °C 1023.6 hPa ESE 3.9 km/h 14.5 km/h 82% 0 mm 0 W/m2
01:29 8.4 °C 5.5 °C 1023.6 hPa East 6.8 km/h 17.7 km/h 82% 0 mm 0 W/m2
01:34 8.3 °C 5.4 °C 1023.6 hPa East 6.3 km/h 16.1 km/h 82% 0 mm 0 W/m2
01:39 8.3 °C 5.4 °C 1023.9 hPa East 7.1 km/h 16.1 km/h 82% 0 mm 0 W/m2
01:44 8.3 °C 5.4 °C 1023.6 hPa East 6.9 km/h 22.5 km/h 82% 0 mm 0 W/m2
01:49 8.3 °C 5.4 °C 1023.6 hPa East 8.9 km/h 22.5 km/h 82% 0 mm 0 W/m2
01:54 8.3 °C 5.4 °C 1023.6 hPa East 6.8 km/h 16.1 km/h 82% 0 mm 0 W/m2
01:59 8.3 °C 5.4 °C 1023.6 hPa East 4.7 km/h 16.1 km/h 82% 0 mm 0 W/m2
02:04 8.3 °C 5.4 °C 1023.6 hPa East 4.3 km/h 16.1 km/h 82% 0 mm 0 W/m2
02:09 8.2 °C 5.3 °C 1023.6 hPa East 4.7 km/h 16.1 km/h 82.2% 0 mm 0 W/m2
02:14 8.2 °C 5.5 °C 1023.6 hPa ENE 5.5 km/h 16.1 km/h 83% 0 mm 0 W/m2
02:19 8.2 °C 5.5 °C 1023.2 hPa East 6.6 km/h 16.1 km/h 83% 0 mm 0 W/m2
02:24 8.2 °C 5.5 °C 1023.2 hPa East 6.9 km/h 17.7 km/h 83% 0 mm 0 W/m2
02:29 8.1 °C 5.4 °C 1023.2 hPa East 8 km/h 20.9 km/h 83% 0 mm 0 W/m2
02:34 8.1 °C 5.4 °C 1023.2 hPa East 6.1 km/h 20.9 km/h 83% 0 mm 0 W/m2
02:39 8.1 °C 5.4 °C 1023.2 hPa East 7.9 km/h 14.5 km/h 83% 0 mm 0 W/m2
02:44 8.1 °C 5.3 °C 1023.2 hPa ESE 6 km/h 17.7 km/h 83% 0 mm 0 W/m2
02:49 8 °C 5.3 °C 1023.2 hPa East 6.3 km/h 17.7 km/h 83% 0 mm 0 W/m2
02:54 7.9 °C 5.2 °C 1023.2 hPa ESE 7.9 km/h 17.7 km/h 83% 0 mm 0 W/m2
02:59 7.9 °C 5.2 °C 1023.2 hPa ESE 8.2 km/h 17.7 km/h 83% 0 mm 0 W/m2
03:04 7.9 °C 5.3 °C 1023.2 hPa East 3.9 km/h 17.7 km/h 83.6% 0 mm 0 W/m2
03:09 7.8 °C 5.3 °C 1023.2 hPa ESE 6.3 km/h 16.1 km/h 84% 0 mm 0 W/m2
03:14 7.8 °C 5.3 °C 1023.2 hPa East 5.1 km/h 16.1 km/h 84% 0 mm 0 W/m2
03:19 7.8 °C 5.3 °C 1023.2 hPa East 3.7 km/h 11.3 km/h 84% 0 mm 0 W/m2
03:24 7.8 °C 5.3 °C 1023.2 hPa East 3.4 km/h 11.3 km/h 84% 0 mm 0 W/m2
03:29 7.8 °C 5.3 °C 1023.2 hPa East 6.3 km/h 14.5 km/h 84% 0 mm 0 W/m2
03:34 7.8 °C 5.3 °C 1022.9 hPa East 3.4 km/h 14.5 km/h 84% 0 mm 0 W/m2
03:39 7.8 °C 5.3 °C 1022.9 hPa East 7.6 km/h 17.7 km/h 84% 0 mm 0 W/m2
03:44 7.8 °C 5.3 °C 1022.9 hPa ENE 5.3 km/h 16.1 km/h 84% 0 mm 0 W/m2
03:49 7.8 °C 5.3 °C 1023.2 hPa ENE 6.9 km/h 16.1 km/h 84% 0 mm 0 W/m2
03:54 7.8 °C 5.3 °C 1023.2 hPa East 7.1 km/h 20.9 km/h 84% 0 mm 0 W/m2
03:59 7.8 °C 5.3 °C 1023.2 hPa ENE 5.5 km/h 16.1 km/h 84% 0 mm 0 W/m2
04:04 7.9 °C 5.4 °C 1023.2 hPa East 5.1 km/h 16.1 km/h 84% 0 mm 0 W/m2
04:09 7.9 °C 5.4 °C 1022.9 hPa East 4.3 km/h 14.5 km/h 84% 0 mm 0 W/m2
04:14 7.8 °C 5.3 °C 1023.2 hPa ENE 5.8 km/h 19.3 km/h 84% 0 mm 0 W/m2
04:19 7.8 °C 5.3 °C 1023.2 hPa East 6.4 km/h 19.3 km/h 84% 0 mm 0 W/m2
04:24 7.8 °C 5.3 °C 1023.2 hPa East 6 km/h 20.9 km/h 84% 0 mm 0 W/m2
04:29 7.8 °C 5.3 °C 1023.2 hPa East 7.4 km/h 20.9 km/h 84% 0 mm 0 W/m2
04:34 7.8 °C 5.3 °C 1022.9 hPa East 4.8 km/h 20.9 km/h 84% 0 mm 0 W/m2
04:39 7.8 °C 5.3 °C 1022.9 hPa ENE 4.5 km/h 20.9 km/h 84% 0 mm 0 W/m2
04:44 7.8 °C 5.3 °C 1022.9 hPa East 5.5 km/h 12.9 km/h 84% 0 mm 0 W/m2
04:49 7.8 °C 5.3 °C 1022.9 hPa ENE 6 km/h 14.5 km/h 84% 0 mm 0 W/m2
04:54 7.8 °C 5.3 °C 1022.9 hPa East 6 km/h 16.1 km/h 84% 0 mm 0 W/m2
04:59 7.7 °C 5.2 °C 1022.9 hPa ENE 6.6 km/h 16.1 km/h 84% 0 mm 0 W/m2
05:04 7.8 °C 5.3 °C 1022.9 hPa ENE 5.1 km/h 14.5 km/h 84% 0 mm 0 W/m2
05:09 7.7 °C 5.2 °C 1022.9 hPa East 4.8 km/h 11.3 km/h 84% 0 mm 0 W/m2
05:14 7.7 °C 5.2 °C 1022.9 hPa ENE 4.3 km/h 12.9 km/h 84% 0 mm 0 W/m2
05:19 7.7 °C 5.2 °C 1022.9 hPa East 6.3 km/h 17.7 km/h 84% 0 mm 0 W/m2
05:24 7.8 °C 5.3 °C 1022.9 hPa East 6.4 km/h 17.7 km/h 84% 0 mm 0 W/m2
05:29 7.8 °C 5.3 °C 1022.9 hPa East 4.8 km/h 17.7 km/h 84% 0 mm 0 W/m2
05:34 7.8 °C 5.3 °C 1022.9 hPa ESE 5 km/h 16.1 km/h 84% 0 mm 0 W/m2
05:39 7.8 °C 5.3 °C 1022.9 hPa East 6.9 km/h 17.7 km/h 84% 0 mm 0 W/m2
05:44 7.8 °C 5.3 °C 1022.9 hPa East 4.8 km/h 17.7 km/h 84% 0 mm 0 W/m2
05:49 7.8 °C 5.3 °C 1022.9 hPa ESE 4.3 km/h 17.7 km/h 84% 0 mm 0 W/m2
05:54 7.7 °C 5.2 °C 1022.9 hPa East 4.2 km/h 12.9 km/h 84% 0 mm 0 W/m2
05:59 7.7 °C 5.2 °C 1022.6 hPa East 3.7 km/h 12.9 km/h 84% 0 mm 0 W/m2
06:04 7.7 °C 5.3 °C 1022.9 hPa East 4.3 km/h 16.1 km/h 85% 0 mm 0 W/m2
06:09 7.7 °C 5.3 °C 1022.9 hPa ENE 4 km/h 11.3 km/h 85% 0 mm 0 W/m2
06:14 7.7 °C 5.3 °C 1022.9 hPa East 3.4 km/h 17.7 km/h 85% 0 mm 0 W/m2
06:19 7.7 °C 5.3 °C 1022.9 hPa East 4.3 km/h 14.5 km/h 85% 0 mm 0 W/m2
06:24 7.7 °C 5.2 °C 1022.9 hPa East 5 km/h 19.3 km/h 85% 0 mm 0 W/m2
06:29 7.6 °C 5.2 °C 1022.9 hPa ENE 5.8 km/h 19.3 km/h 85% 0 mm 0 W/m2
06:34 7.6 °C 5.2 °C 1022.9 hPa East 5.3 km/h 19.3 km/h 85% 0 mm 0 W/m2
06:39 7.6 °C 5.2 °C 1022.9 hPa East 5.3 km/h 16.1 km/h 85% 0 mm 0 W/m2
06:44 7.6 °C 5.2 °C 1022.9 hPa East 6.3 km/h 16.1 km/h 85% 0 mm 0 W/m2
06:49 7.5 °C 5.1 °C 1022.9 hPa ENE 6.3 km/h 16.1 km/h 85% 0 mm 0 W/m2
06:54 7.4 °C 5.1 °C 1022.9 hPa ESE 5.3 km/h 14.5 km/h 85% 0 mm 0 W/m2
06:59 7.4 °C 5 °C 1022.9 hPa East 7.1 km/h 17.7 km/h 85% 0 mm 0 W/m2
07:04 7.4 °C 5 °C 1023.2 hPa East 4.5 km/h 14.5 km/h 85% 0 mm 0 W/m2
07:09 7.3 °C 4.9 °C 1023.2 hPa ESE 6 km/h 14.5 km/h 85% 0 mm 7 W/m2
07:14 7.3 °C 4.9 °C 1023.2 hPa East 5.5 km/h 14.5 km/h 85% 0 mm 9 W/m2
07:19 7.3 °C 4.8 °C 1022.9 hPa East 4.7 km/h 14.5 km/h 85% 0 mm 11 W/m2
07:24 7.2 °C 4.8 °C 1022.9 hPa East 7.1 km/h 22.5 km/h 85.1% 0 mm 14 W/m2
07:29 7.1 °C 4.9 °C 1023.2 hPa East 5.1 km/h 20.9 km/h 86% 0 mm 19 W/m2
07:34 7.1 °C 4.9 °C 1023.2 hPa ENE 6.8 km/h 16.1 km/h 86% 0 mm 25 W/m2
07:39 7.1 °C 4.8 °C 1023.2 hPa East 7.7 km/h 17.7 km/h 86% 0 mm 30 W/m2
07:44 6.9 °C 4.7 °C 1022.9 hPa East 8.9 km/h 19.3 km/h 86% 0 mm 32 W/m2
07:49 6.9 °C 4.7 °C 1023.2 hPa East 7.4 km/h 19.3 km/h 86% 0 mm 37 W/m2
07:54 6.9 °C 4.8 °C 1023.2 hPa East 8.4 km/h 17.7 km/h 86% 0 mm 40 W/m2
07:59 7 °C 4.8 °C 1023.2 hPa ESE 6 km/h 17.7 km/h 86% 0 mm 47 W/m2
08:04 7 °C 4.8 °C 1023.2 hPa East 4.7 km/h 12.9 km/h 86% 0 mm 53 W/m2
08:09 6.9 °C 4.7 °C 1023.2 hPa East 4.7 km/h 14.5 km/h 86% 0 mm 56 W/m2
08:14 7 °C 4.8 °C 1023.2 hPa East 7.6 km/h 19.3 km/h 86% 0 mm 62 W/m2
08:19 7.1 °C 4.8 °C 1023.2 hPa East 4.5 km/h 17.7 km/h 86% 0 mm 69 W/m2
08:24 7.1 °C 4.9 °C 1023.2 hPa East 6.6 km/h 17.7 km/h 86% 0 mm 79 W/m2
08:29 7.2 °C 4.9 °C 1023.2 hPa ESE 4 km/h 17.7 km/h 86% 0 mm 86 W/m2
08:34 7.2 °C 5 °C 1023.2 hPa East 4.2 km/h 11.3 km/h 86% 0 mm 86 W/m2
08:39 7.3 °C 5.1 °C 1023.2 hPa East 5 km/h 17.7 km/h 86% 0 mm 84 W/m2
08:44 7.3 °C 5.1 °C 1023.2 hPa East 5 km/h 19.3 km/h 86% 0 mm 88 W/m2
08:49 7.4 °C 5.2 °C 1023.2 hPa East 4.2 km/h 16.1 km/h 86% 0 mm 93 W/m2
08:54 7.4 °C 5.2 °C 1023.2 hPa East 6.6 km/h 14.5 km/h 85.7% 0 mm 100 W/m2
08:59 7.6 °C 5.2 °C 1023.2 hPa ESE 8.4 km/h 17.7 km/h 85% 0 mm 107 W/m2
09:04 7.6 °C 5.2 °C 1023.2 hPa East 4.5 km/h 17.7 km/h 85% 0 mm 116 W/m2
09:09 7.7 °C 5.3 °C 1023.2 hPa ESE 7.6 km/h 19.3 km/h 85% 0 mm 127 W/m2
09:14 7.8 °C 5.4 °C 1023.2 hPa East 5 km/h 22.5 km/h 85% 0 mm 137 W/m2
09:19 7.9 °C 5.4 °C 1022.9 hPa East 6.1 km/h 16.1 km/h 84.1% 0 mm 134 W/m2
09:24 8.1 °C 5.6 °C 1022.9 hPa East 7.9 km/h 20.9 km/h 84% 0 mm 146 W/m2
09:29 8.2 °C 5.7 °C 1023.2 hPa East 5.8 km/h 20.9 km/h 84% 0 mm 146 W/m2
09:34 8.2 °C 5.7 °C 1023.2 hPa East 7.6 km/h 17.7 km/h 83.8% 0 mm 139 W/m2
09:39 8.3 °C 5.6 °C 1023.2 hPa East 4.7 km/h 12.9 km/h 83% 0 mm 134 W/m2
09:44 8.3 °C 5.7 °C 1023.2 hPa East 5.8 km/h 14.5 km/h 83% 0 mm 130 W/m2
09:49 8.5 °C 5.8 °C 1023.2 hPa East 5.1 km/h 17.7 km/h 83% 0 mm 127 W/m2
09:54 8.6 °C 5.9 °C 1023.2 hPa ENE 10 km/h 27.4 km/h 83% 0 mm 153 W/m2
09:59 8.6 °C 5.8 °C 1023.2 hPa East 7.6 km/h 19.3 km/h 82.5% 0 mm 174 W/m2
10:04 8.7 °C 5.8 °C 1022.9 hPa East 5.5 km/h 16.1 km/h 82% 0 mm 174 W/m2
10:09 8.8 °C 5.9 °C 1022.9 hPa East 6.6 km/h 20.9 km/h 82% 0 mm 162 W/m2
10:14 8.9 °C 6 °C 1022.9 hPa East 8.7 km/h 19.3 km/h 82% 0 mm 149 W/m2
10:19 8.9 °C 6.1 °C 1022.9 hPa East 7.6 km/h 16.1 km/h 82% 0 mm 132 W/m2
10:24 9.1 °C 6.2 °C 1022.9 hPa East 6.3 km/h 16.1 km/h 81.8% 0 mm 162 W/m2
10:29 9.2 °C 6.2 °C 1022.9 hPa East 5.5 km/h 16.1 km/h 81.4% 0 mm 167 W/m2
10:34 9.3 °C 6.2 °C 1022.9 hPa East 6.6 km/h 16.1 km/h 81% 0 mm 169 W/m2
10:39 9.4 °C 6.3 °C 1022.9 hPa ESE 4.8 km/h 14.5 km/h 81% 0 mm 176 W/m2
10:44 9.7 °C 6.4 °C 1022.9 hPa ESE 6.4 km/h 16.1 km/h 80.3% 0 mm 181 W/m2
10:49 9.8 °C 6.4 °C 1022.9 hPa East 8.7 km/h 19.3 km/h 79.7% 0 mm 181 W/m2
10:54 10 °C 6.3 °C 1022.9 hPa East 5.5 km/h 19.3 km/h 78.4% 0 mm 186 W/m2
10:59 10.2 °C 6.3 °C 1022.9 hPa ESE 5.6 km/h 17.7 km/h 76.9% 0 mm 188 W/m2
11:04 10.3 °C 6.1 °C 1022.9 hPa SE 10 km/h 25.7 km/h 74.5% 0 mm 207 W/m2
11:09 10.6 °C 5.9 °C 1022.9 hPa ESE 9.5 km/h 20.9 km/h 73% 0 mm 213 W/m2
11:14 10.7 °C 5.9 °C 1022.9 hPa ESE 10.8 km/h 24.1 km/h 71.8% 0 mm 214 W/m2
11:19 10.8 °C 5.8 °C 1022.6 hPa ESE 12.4 km/h 24.1 km/h 71% 0 mm 202 W/m2
11:24 10.8 °C 5.8 °C 1022.6 hPa ESE 11.3 km/h 29 km/h 71% 0 mm 192 W/m2
11:29 10.8 °C 5.7 °C 1022.6 hPa ESE 12.2 km/h 25.7 km/h 70.8% 0 mm 193 W/m2
11:34 10.8 °C 5.7 °C 1022.2 hPa ESE 9.8 km/h 24.1 km/h 70.7% 0 mm 192 W/m2
11:39 10.8 °C 5.7 °C 1022.2 hPa ESE 9.7 km/h 24.1 km/h 70.8% 0 mm 181 W/m2
11:44 10.8 °C 5.8 °C 1022.2 hPa ESE 9.5 km/h 22.5 km/h 71% 0 mm 171 W/m2
11:49 10.8 °C 5.8 °C 1022.2 hPa SE 10.8 km/h 25.7 km/h 71% 0 mm 167 W/m2
11:54 10.7 °C 5.7 °C 1022.2 hPa ESE 15.1 km/h 29 km/h 71% 0 mm 172 W/m2
11:59 10.7 °C 5.7 °C 1022.2 hPa SE 8.5 km/h 29 km/h 71% 0 mm 172 W/m2
12:04 10.7 °C 5.7 °C 1022.2 hPa ESE 12.7 km/h 29 km/h 71% 0 mm 160 W/m2
12:09 10.8 °C 5.8 °C 1022.2 hPa SE 9.5 km/h 19.3 km/h 71% 0 mm 146 W/m2
12:14 10.8 °C 5.8 °C 1022.2 hPa ESE 13 km/h 29 km/h 71% 0 mm 132 W/m2
12:19 10.8 °C 5.8 °C 1021.9 hPa SE 9.3 km/h 29 km/h 71% 0 mm 149 W/m2
12:24 10.8 °C 5.8 °C 1021.9 hPa ESE 13.8 km/h 25.7 km/h 71% 0 mm 151 W/m2
12:29 10.8 °C 5.8 °C 1021.9 hPa ESE 13.7 km/h 30.6 km/h 71% 0 mm 149 W/m2
12:34 10.8 °C 5.8 °C 1021.9 hPa SE 10.3 km/h 30.6 km/h 71% 0 mm 148 W/m2
12:39 10.9 °C 5.8 °C 1021.9 hPa SE 11.7 km/h 24.1 km/h 71% 0 mm 148 W/m2
12:44 10.9 °C 5.8 °C 1021.6 hPa ESE 10.9 km/h 25.7 km/h 71% 0 mm 146 W/m2
12:49 10.9 °C 5.8 °C 1021.6 hPa ESE 10.6 km/h 24.1 km/h 70.4% 0 mm 130 W/m2
12:54 11 °C 5.7 °C 1021.6 hPa ESE 14.3 km/h 25.7 km/h 70% 0 mm 121 W/m2
12:59 11 °C 5.7 °C 1021.6 hPa SE 10.3 km/h 25.7 km/h 70% 0 mm 113 W/m2
13:04 11.1 °C 5.8 °C 1021.6 hPa ESE 9.8 km/h 22.5 km/h 70% 0 mm 113 W/m2
13:09 11.1 °C 5.8 °C 1021.6 hPa SE 6 km/h 12.9 km/h 70% 0 mm 109 W/m2
13:14 11.1 °C 5.8 °C 1021.6 hPa ESE 9 km/h 24.1 km/h 70% 0 mm 105 W/m2
13:19 11.2 °C 5.8 °C 1021.6 hPa ESE 7.2 km/h 20.9 km/h 69.7% 0 mm 109 W/m2
13:24 11.2 °C 5.8 °C 1021.2 hPa SE 6.8 km/h 20.9 km/h 69.5% 0 mm 116 W/m2
13:29 11.2 °C 5.7 °C 1021.2 hPa SE 7.2 km/h 19.3 km/h 69% 0 mm 123 W/m2
13:34 11.2 °C 5.7 °C 1021.2 hPa ESE 8 km/h 19.3 km/h 69% 0 mm 128 W/m2
13:39 11.3 °C 5.7 °C 1021.2 hPa ESE 7.7 km/h 19.3 km/h 68.7% 0 mm 134 W/m2
13:44 11.3 °C 5.6 °C 1021.2 hPa SE 5.3 km/h 16.1 km/h 68% 0 mm 134 W/m2
13:49 11.3 °C 5.7 °C 1021.2 hPa SE 7.9 km/h 17.7 km/h 68.2% 0 mm 130 W/m2
13:54 11.4 °C 5.7 °C 1021.2 hPa ESE 5.8 km/h 17.7 km/h 68% 0 mm 118 W/m2
13:59 11.4 °C 5.7 °C 1021.2 hPa ESE 5 km/h 14.5 km/h 68.2% 0 mm 105 W/m2
14:04 11.4 °C 5.7 °C 1021.2 hPa ESE 8.4 km/h 22.5 km/h 68% 0 mm 95 W/m2
14:09 11.4 °C 5.7 °C 1021.2 hPa SE 7.4 km/h 19.3 km/h 68% 0 mm 79 W/m2
14:14 11.4 °C 5.5 °C 1021.2 hPa SE 7.6 km/h 19.3 km/h 67% 0 mm 67 W/m2
14:19 11.4 °C 5.6 °C 1021.2 hPa ESE 10.3 km/h 22.5 km/h 67.3% 0 mm 54 W/m2
14:24 11.3 °C 5.4 °C 1021.2 hPa ESE 8.5 km/h 16.1 km/h 67% 0 mm 53 W/m2
14:29 11.3 °C 5.4 °C 1020.9 hPa ESE 7.2 km/h 16.1 km/h 67% 0 mm 58 W/m2
14:34 11.3 °C 5.4 °C 1020.9 hPa ESE 8.9 km/h 22.5 km/h 67% 0 mm 65 W/m2
14:39 11.3 °C 5.4 °C 1020.9 hPa ESE 8.2 km/h 22.5 km/h 67% 0 mm 70 W/m2
14:44 11.3 °C 5.4 °C 1020.9 hPa ESE 7.7 km/h 19.3 km/h 67.1% 0 mm 77 W/m2
14:49 11.3 °C 5.6 °C 1020.9 hPa SE 11.4 km/h 24.1 km/h 67.7% 0 mm 77 W/m2
14:54 11.3 °C 5.9 °C 1020.9 hPa ESE 11.6 km/h 29 km/h 69.5% 0 mm 74 W/m2
14:59 11.3 °C 6.2 °C 1020.9 hPa ESE 10.3 km/h 22.5 km/h 70.9% 0 mm 63 W/m2
15:04 11.3 °C 6.3 °C 1020.9 hPa ESE 11.6 km/h 29 km/h 71% 0 mm 62 W/m2
15:09 11.3 °C 6.3 °C 1020.5 hPa ESE 11.4 km/h 20.9 km/h 71% 0 mm 65 W/m2
15:14 11.3 °C 6.3 °C 1020.5 hPa ESE 7.4 km/h 22.5 km/h 71% 0 mm 63 W/m2
15:19 11.3 °C 6.2 °C 1020.5 hPa ESE 8 km/h 22.5 km/h 71% 0 mm 58 W/m2
15:24 11.3 °C 6.2 °C 1020.5 hPa ESE 13 km/h 20.9 km/h 71% 0 mm 53 W/m2
15:29 11.3 °C 6.2 °C 1020.5 hPa ESE 12.1 km/h 22.5 km/h 71% 0 mm 51 W/m2
15:34 11.3 °C 6.3 °C 1020.5 hPa East 8.2 km/h 22.5 km/h 71.2% 0 mm 47 W/m2
15:39 11.3 °C 6.4 °C 1020.5 hPa ESE 8 km/h 22.5 km/h 72% 0 mm 44 W/m2
15:44 11.3 °C 6.4 °C 1020.5 hPa ESE 7.2 km/h 17.7 km/h 72% 0 mm 40 W/m2
15:49 11.3 °C 6.4 °C 1020.5 hPa SE 8.9 km/h 20.9 km/h 72% 0 mm 33 W/m2
15:54 11.2 °C 6.3 °C 1020.5 hPa ESE 6.8 km/h 20.9 km/h 72% 0 mm 25 W/m2
15:59 11.2 °C 6.3 °C 1020.5 hPa ESE 8.9 km/h 22.5 km/h 72% 0 mm 19 W/m2
16:04 11.2 °C 6.3 °C 1020.2 hPa ESE 9.7 km/h 25.7 km/h 72% 0 mm 18 W/m2
16:09 11.2 °C 6.3 °C 1020.5 hPa ESE 6.9 km/h 16.1 km/h 72% 0 mm 16 W/m2
16:14 11.2 °C 6.3 °C 1020.5 hPa ESE 7.2 km/h 19.3 km/h 72% 0 mm 14 W/m2
16:19 11.2 °C 6.2 °C 1020.2 hPa ESE 7.6 km/h 17.7 km/h 72% 0 mm 11 W/m2
16:24 11.1 °C 6.2 °C 1020.2 hPa ESE 6.8 km/h 17.7 km/h 72% 0 mm 9 W/m2
16:29 11.1 °C 6.2 °C 1020.2 hPa ESE 4.8 km/h 12.9 km/h 72% 0 mm 9 W/m2
16:34 11.1 °C 6.2 °C 1020.2 hPa ESE 3.2 km/h 12.9 km/h 72% 0 mm 7 W/m2
16:39 11 °C 6.3 °C 1020.2 hPa ESE 7.9 km/h 22.5 km/h 72.9% 0 mm 5 W/m2
16:44 10.9 °C 6.1 °C 1020.2 hPa ESE 8.9 km/h 19.3 km/h 72% 0 mm 0 W/m2
16:49 10.9 °C 6.2 °C 1020.2 hPa ESE 5.1 km/h 17.7 km/h 72.7% 0 mm 0 W/m2
16:54 10.9 °C 6.3 °C 1020.2 hPa ESE 7.2 km/h 19.3 km/h 73% 0 mm 0 W/m2
16:59 10.8 °C 6.2 °C 1020.2 hPa ESE 8 km/h 17.7 km/h 73% 0 mm 0 W/m2
17:04 10.8 °C 6.2 °C 1020.2 hPa ESE 8.4 km/h 19.3 km/h 73% 0 mm 0 W/m2
17:09 10.8 °C 6.1 °C 1020.2 hPa ESE 7.7 km/h 14.5 km/h 72.6% 0 mm 0 W/m2
17:14 10.8 °C 6.1 °C 1020.2 hPa East 5 km/h 12.9 km/h 72.2% 0 mm 0 W/m2
17:19 10.7 °C 5.9 °C 1020.2 hPa ESE 8.5 km/h 19.3 km/h 72.3% 0 mm 0 W/m2
17:24 10.7 °C 5.9 °C 1020.2 hPa ESE 8.2 km/h 17.7 km/h 72% 0 mm 0 W/m2
17:29 10.7 °C 5.9 °C 1020.2 hPa ESE 6.4 km/h 17.7 km/h 72% 0 mm 0 W/m2
17:34 10.7 °C 5.9 °C 1020.2 hPa ESE 4.3 km/h 16.1 km/h 72% 0 mm 0 W/m2
17:39 10.7 °C 6 °C 1020.2 hPa East 6.8 km/h 12.9 km/h 72.4% 0 mm 0 W/m2
17:44 10.7 °C 6.1 °C 1020.5 hPa ESE 6 km/h 16.1 km/h 73% 0 mm 0 W/m2
17:49 10.7 °C 6.1 °C 1020.2 hPa ESE 6.6 km/h 24.1 km/h 73% 0 mm 0 W/m2
17:54 10.6 °C 6 °C 1020.2 hPa ESE 5.8 km/h 14.5 km/h 73% 0 mm 0 W/m2
17:59 10.6 °C 6 °C 1020.5 hPa ESE 8.9 km/h 16.1 km/h 73% 0 mm 0 W/m2
18:04 10.6 °C 6.1 °C 1020.2 hPa ESE 5.1 km/h 12.9 km/h 73.5% 0 mm 0 W/m2
18:09 10.4 °C 6.1 °C 1020.2 hPa ESE 5.8 km/h 16.1 km/h 74% 0 mm 0 W/m2
18:14 10.4 °C 6 °C 1020.2 hPa ESE 3.9 km/h 12.9 km/h 74% 0 mm 0 W/m2
18:19 10.4 °C 6.1 °C 1020.2 hPa ESE 4.8 km/h 11.3 km/h 74.2% 0 mm 0 W/m2
18:24 10.3 °C 6.1 °C 1020.5 hPa ESE 6.4 km/h 16.1 km/h 75% 0 mm 0 W/m2
18:29 10.2 °C 6 °C 1020.2 hPa ESE 8.5 km/h 22.5 km/h 75% 0 mm 0 W/m2
18:34 10.2 °C 5.9 °C 1020.2 hPa ESE 6.1 km/h 22.5 km/h 75% 0 mm 0 W/m2
18:39 10.1 °C 5.8 °C 1020.2 hPa ESE 10.3 km/h 20.9 km/h 75% 0 mm 0 W/m2
18:44 9.9 °C 5.8 °C 1020.2 hPa ESE 7.7 km/h 24.1 km/h 75% 0 mm 0 W/m2
18:49 9.9 °C 5.8 °C 1020.2 hPa ESE 7.1 km/h 16.1 km/h 75.8% 0 mm 0 W/m2
18:54 9.8 °C 5.8 °C 1020.2 hPa ESE 8.9 km/h 19.3 km/h 76% 0 mm 0 W/m2
18:59 9.7 °C 5.7 °C 1020.2 hPa East 9.7 km/h 20.9 km/h 76% 0 mm 0 W/m2
19:04 9.7 °C 5.7 °C 1020.2 hPa ESE 6.9 km/h 16.1 km/h 76% 0 mm 0 W/m2
19:09 9.6 °C 5.6 °C 1020.2 hPa East 10 km/h 19.3 km/h 76% 0 mm 0 W/m2
19:14 9.5 °C 5.5 °C 1019.9 hPa ESE 7.6 km/h 24.1 km/h 76% 0 mm 0 W/m2
19:19 9.4 °C 5.4 °C 1019.9 hPa ESE 6.3 km/h 24.1 km/h 76% 0 mm 0 W/m2
19:24 9.3 °C 5.3 °C 1019.9 hPa East 6.8 km/h 22.5 km/h 76% 0 mm 0 W/m2
19:29 9.3 °C 5.3 °C 1019.9 hPa ESE 8.2 km/h 22.5 km/h 76% 0 mm 0 W/m2
19:34 9.3 °C 5.4 °C 1020.2 hPa ESE 8.5 km/h 17.7 km/h 76.6% 0 mm 0 W/m2
19:39 9.2 °C 5.4 °C 1020.2 hPa ESE 5.5 km/h 16.1 km/h 77% 0 mm 0 W/m2
19:44 9.2 °C 5.4 °C 1020.2 hPa ESE 9.2 km/h 20.9 km/h 77% 0 mm 0 W/m2
19:49 9.1 °C 5.3 °C 1020.2 hPa ESE 6.3 km/h 19.3 km/h 77% 0 mm 0 W/m2
19:54 9.1 °C 5.3 °C 1020.2 hPa East 6.8 km/h 19.3 km/h 77% 0 mm 0 W/m2
19:59 9.1 °C 5.2 °C 1020.2 hPa ESE 7.7 km/h 17.7 km/h 77% 0 mm 0 W/m2
20:04 8.9 °C 5.2 °C 1020.2 hPa ESE 10.8 km/h 20.9 km/h 77% 0.25 mm 0 W/m2
20:09 8.9 °C 5.3 °C 1020.2 hPa ESE 6.6 km/h 20.9 km/h 77.9% 0.25 mm 0 W/m2
20:14 8.8 °C 5.3 °C 1020.2 hPa East 12.6 km/h 24.1 km/h 78.2% 0.25 mm 0 W/m2
20:19 8.7 °C 5.3 °C 1020.2 hPa ESE 10.1 km/h 24.1 km/h 79.2% 0.25 mm 0 W/m2
20:24 8.7 °C 5.3 °C 1019.9 hPa ESE 9.5 km/h 17.7 km/h 80% 0.25 mm 0 W/m2
20:29 8.6 °C 5.4 °C 1019.9 hPa ESE 9 km/h 19.3 km/h 80.8% 0.25 mm 0 W/m2
20:34 8.5 °C 5.4 °C 1019.9 hPa ESE 9 km/h 27.4 km/h 81.4% 0.25 mm 0 W/m2
20:39 8.4 °C 5.5 °C 1019.9 hPa East 14.2 km/h 27.4 km/h 82% 0.51 mm 0 W/m2
20:44 8.3 °C 5.6 °C 1019.9 hPa East 8.4 km/h 27.4 km/h 82.7% 0.51 mm 0 W/m2
20:49 8.3 °C 5.6 °C 1019.9 hPa East 10.1 km/h 25.7 km/h 83% 0.51 mm 0 W/m2
20:54 8.3 °C 5.7 °C 1019.9 hPa ESE 9.8 km/h 25.7 km/h 83.7% 0.51 mm 0 W/m2
20:59 8.2 °C 5.7 °C 1019.9 hPa ESE 10.5 km/h 25.7 km/h 84% 0.51 mm 0 W/m2
21:04 8.2 °C 5.7 °C 1019.9 hPa ESE 12.4 km/h 25.7 km/h 84% 0.51 mm 0 W/m2
21:09 8.2 °C 5.8 °C 1019.9 hPa East 8.4 km/h 19.3 km/h 84.9% 0.51 mm 0 W/m2
21:14 8.2 °C 5.8 °C 1019.9 hPa ESE 7.1 km/h 16.1 km/h 85% 0.51 mm 0 W/m2
21:19 8.1 °C 5.7 °C 1019.9 hPa ESE 12.1 km/h 25.7 km/h 85% 0.51 mm 0 W/m2
21:24 8.1 °C 5.8 °C 1019.5 hPa ESE 10.5 km/h 27.4 km/h 85.5% 0.51 mm 0 W/m2
21:29 8.1 °C 5.9 °C 1019.5 hPa East 7.2 km/h 19.3 km/h 86% 0.51 mm 0 W/m2
21:34 8.1 °C 5.9 °C 1019.5 hPa ESE 8.9 km/h 20.9 km/h 86% 0.76 mm 0 W/m2
21:39 8.1 °C 6 °C 1019.5 hPa ESE 7.6 km/h 17.7 km/h 86.7% 0.76 mm 0 W/m2
21:44 8 °C 6 °C 1019.5 hPa ESE 8.2 km/h 19.3 km/h 87% 0.51 mm 0 W/m2
21:49 7.9 °C 5.9 °C 1019.5 hPa East 9.7 km/h 19.3 km/h 87% 0.51 mm 0 W/m2
21:54 7.9 °C 5.9 °C 1019.5 hPa ESE 8.7 km/h 22.5 km/h 87% 0.76 mm 0 W/m2
21:59 7.9 °C 6.1 °C 1019.5 hPa East 8.7 km/h 22.5 km/h 88% 0.76 mm 0 W/m2
22:04 7.9 °C 6 °C 1019.5 hPa ESE 7.7 km/h 19.3 km/h 88% 0.51 mm 0 W/m2
22:09 7.9 °C 6 °C 1019.5 hPa East 9.3 km/h 22.5 km/h 88% 0.51 mm 0 W/m2
22:14 7.9 °C 6 °C 1019.5 hPa ESE 7.1 km/h 24.1 km/h 88% 0.76 mm 0 W/m2
22:19 7.9 °C 6 °C 1019.5 hPa ESE 7.7 km/h 17.7 km/h 88% 0.76 mm 0 W/m2
22:24 7.9 °C 6.2 °C 1019.5 hPa ESE 9.8 km/h 25.7 km/h 89% 0.76 mm 0 W/m2
22:29 7.9 °C 6.2 °C 1019.5 hPa ESE 6.9 km/h 25.7 km/h 89% 0.76 mm 0 W/m2
22:34 7.9 °C 6.2 °C 1019.2 hPa ESE 6.4 km/h 22.5 km/h 89% 0.76 mm 0 W/m2
22:39 7.9 °C 6.2 °C 1019.2 hPa ESE 9.8 km/h 22.5 km/h 89% 0.51 mm 0 W/m2
22:44 7.9 °C 6.2 °C 1019.2 hPa ESE 8.5 km/h 22.5 km/h 89.1% 0.76 mm 0 W/m2
22:49 7.9 °C 6.4 °C 1019.2 hPa ESE 9.2 km/h 22.5 km/h 90% 0.76 mm 0 W/m2
22:54 7.9 °C 6.4 °C 1019.2 hPa East 7.2 km/h 22.5 km/h 90% 0.76 mm 0 W/m2
22:59 7.9 °C 6.4 °C 1019.2 hPa ESE 6.4 km/h 12.9 km/h 90% 0.51 mm 0 W/m2
23:04 7.8 °C 6.3 °C 1019.2 hPa ESE 6.9 km/h 14.5 km/h 90% 0.76 mm 0 W/m2
23:09 7.8 °C 6.3 °C 1019.2 hPa ESE 7.9 km/h 20.9 km/h 90% 0.76 mm 0 W/m2
23:14 7.8 °C 6.3 °C 1019.2 hPa ESE 5.6 km/h 14.5 km/h 90% 0.76 mm 0 W/m2
23:19 7.8 °C 6.3 °C 1019.2 hPa ESE 6.1 km/h 16.1 km/h 90% 0.76 mm 0 W/m2
23:24 7.8 °C 6.3 °C 1019.2 hPa ESE 7.4 km/h 19.3 km/h 90.4% 0.76 mm 0 W/m2
23:29 7.8 °C 6.4 °C 1019.2 hPa ESE 5.1 km/h 11.3 km/h 91% 0.51 mm 0 W/m2
23:34 7.8 °C 6.4 °C 1019.2 hPa East 8.2 km/h 20.9 km/h 91% 0.76 mm 0 W/m2
23:39 7.8 °C 6.4 °C 1019.2 hPa ESE 6.3 km/h 16.1 km/h 91% 0.76 mm 0 W/m2
23:44 7.8 °C 6.4 °C 1019.2 hPa East 7.1 km/h 16.1 km/h 91% 0.76 mm 0 W/m2
23:49 7.8 °C 6.4 °C 1019.2 hPa East 3.5 km/h 16.1 km/h 91% 0.76 mm 0 W/m2
23:54 7.8 °C 6.4 °C 1019.2 hPa East 5.8 km/h 19.3 km/h 91% 0.76 mm 0 W/m2
23:59 7.8 °C 6.4 °C 1019.2 hPa East 6.1 km/h 17.7 km/h 91% 0.76 mm 0 W/m2
Bath Spa Weather
Compliments of Weather Underground - 2 mb